createdAt,value
2018-10-16T00:00:19.435Z,22.30
2018-10-16T00:02:49.212Z,21.27
2018-10-16T00:05:19.011Z,19.57
2018-10-16T00:07:48.352Z,19.20
2018-10-16T00:10:23.183Z,18.60
2018-10-16T00:12:52.652Z,17.67
2018-10-16T00:15:22.024Z,19.33
2018-10-16T00:17:51.435Z,17.63
2018-10-16T00:20:20.754Z,18.07
2018-10-16T00:22:50.173Z,17.80
2018-10-16T00:25:19.543Z,18.97
2018-10-16T00:27:48.974Z,18.20
2018-10-16T00:30:18.929Z,17.83
2018-10-16T00:32:48.410Z,16.10
2018-10-16T00:35:17.684Z,16.13
2018-10-16T00:37:46.977Z,18.70
2018-10-16T00:40:16.327Z,17.57
2018-10-16T00:42:45.730Z,18.67
2018-10-16T00:45:15.085Z,20.47
2018-10-16T00:47:44.439Z,23.17
2018-10-16T00:50:13.835Z,22.80
2018-10-16T00:52:43.243Z,20.87
2018-10-16T00:55:12.676Z,21.27
2018-10-16T00:57:42.140Z,20.10
2018-10-16T01:00:12.832Z,18.27
2018-10-16T01:02:43.194Z,20.47
2018-10-16T01:05:13.395Z,19.17
2018-10-16T01:07:43.175Z,20.50
2018-10-16T01:10:13.225Z,19.10
2018-10-16T01:12:42.624Z,19.30
2018-10-16T01:15:12.535Z,18.00
2018-10-16T01:17:41.955Z,18.00
2018-10-16T01:20:12.890Z,18.87
2018-10-16T01:22:42.756Z,21.33
2018-10-16T01:25:13.035Z,24.23
2018-10-16T01:27:42.389Z,23.43
2018-10-16T01:30:11.827Z,19.60
2018-10-16T01:32:41.149Z,21.57
2018-10-16T01:35:11.793Z,17.83
2018-10-16T01:37:41.585Z,20.00
2018-10-16T01:40:11.633Z,20.70
2018-10-16T01:42:41.019Z,19.87
2018-10-16T01:45:11.048Z,19.27
2018-10-16T01:47:40.420Z,20.47
2018-10-16T01:50:09.807Z,18.90
2018-10-16T01:52:39.116Z,18.47
2018-10-16T01:55:08.469Z,18.00
2018-10-16T01:57:37.821Z,18.00
2018-10-16T02:00:08.364Z,17.40
2018-10-16T02:02:37.734Z,18.77
2018-10-16T02:05:07.311Z,16.53
2018-10-16T02:07:36.794Z,17.50
2018-10-16T02:10:06.473Z,16.83
2018-10-16T02:12:36.171Z,17.07
2018-10-16T02:15:06.365Z,16.40
2018-10-16T02:17:35.682Z,16.20
2018-10-16T02:20:05.732Z,16.87
2018-10-16T02:22:35.112Z,17.93
2018-10-16T02:25:04.532Z,17.50
2018-10-16T02:27:33.868Z,18.20
2018-10-16T02:30:03.229Z,18.27
2018-10-16T02:32:32.571Z,16.80
2018-10-16T02:35:01.888Z,15.43
2018-10-16T02:37:31.188Z,17.07
2018-10-16T02:40:00.567Z,16.50
2018-10-16T02:42:29.918Z,17.93
2018-10-16T02:44:59.239Z,15.77
2018-10-16T02:47:28.594Z,15.60
2018-10-16T02:49:58.923Z,15.53
2018-10-16T02:52:28.237Z,15.33
2018-10-16T02:54:57.550Z,14.90
2018-10-16T02:57:27.061Z,14.30
2018-10-16T02:59:56.696Z,17.47
2018-10-16T03:02:26.260Z,15.80
2018-10-16T03:04:55.676Z,14.47
2018-10-16T03:07:25.001Z,13.60
2018-10-16T03:09:54.307Z,15.97
2018-10-16T03:12:23.613Z,16.07
2018-10-16T03:14:52.978Z,15.37
2018-10-16T03:17:22.336Z,16.30
2018-10-16T03:19:51.657Z,16.17
2018-10-16T03:22:20.981Z,15.10
2018-10-16T03:24:50.323Z,17.33
2018-10-16T03:27:19.749Z,16.03
2018-10-16T03:29:49.064Z,15.33
2018-10-16T03:32:18.475Z,15.93
2018-10-16T03:34:47.791Z,16.43
2018-10-16T03:37:17.094Z,14.07
2018-10-16T03:39:46.428Z,16.47
2018-10-16T03:42:16.562Z,15.43
2018-10-16T03:44:45.895Z,14.63
2018-10-16T03:47:15.282Z,15.13
2018-10-16T03:49:44.602Z,14.53
2018-10-16T03:52:13.937Z,16.43
2018-10-16T03:54:43.361Z,15.20
2018-10-16T03:57:12.739Z,16.30
2018-10-16T03:59:42.042Z,15.90
2018-10-16T04:02:11.381Z,16.50
2018-10-16T04:04:40.673Z,16.80
2018-10-16T04:07:10.257Z,14.70
2018-10-16T04:09:39.672Z,14.70
2018-10-16T04:12:09.018Z,14.90
2018-10-16T04:14:38.356Z,14.83
2018-10-16T04:17:07.658Z,13.97
2018-10-16T04:19:37.160Z,15.60
2018-10-16T04:22:07.179Z,15.00
2018-10-16T04:24:36.522Z,14.83
2018-10-16T04:27:05.983Z,17.00
2018-10-16T04:29:35.277Z,14.30
2018-10-16T04:32:04.781Z,14.87
2018-10-16T04:34:34.184Z,14.27
2018-10-16T04:37:03.521Z,15.57
2018-10-16T04:39:32.839Z,14.97
2018-10-16T04:42:02.139Z,16.43
2018-10-16T04:44:31.532Z,15.63
2018-10-16T04:47:00.835Z,16.20
2018-10-16T04:49:30.239Z,14.77
2018-10-16T04:51:59.690Z,15.23
2018-10-16T04:54:29.057Z,15.63
2018-10-16T04:56:58.440Z,15.00
2018-10-16T04:59:27.920Z,15.70
2018-10-16T05:01:57.271Z,15.13
2018-10-16T05:04:26.905Z,16.00
2018-10-16T05:06:56.429Z,14.23
2018-10-16T05:09:25.864Z,15.90
2018-10-16T05:11:56.041Z,15.80
2018-10-16T05:14:25.456Z,14.77
2018-10-16T05:16:55.643Z,14.50
2018-10-16T05:19:25.016Z,15.10
2018-10-16T05:21:54.364Z,15.03
2018-10-16T05:24:23.703Z,13.30
2018-10-16T05:26:53.084Z,15.00
2018-10-16T05:29:22.434Z,15.43
2018-10-16T05:31:51.946Z,13.17
2018-10-16T05:34:21.387Z,16.20
2018-10-16T05:36:50.705Z,14.37
2018-10-16T05:39:20.123Z,15.13
2018-10-16T05:41:49.395Z,14.60
2018-10-16T05:44:18.701Z,15.00
2018-10-16T05:46:48.092Z,13.53
2018-10-16T05:49:17.415Z,16.03
2018-10-16T05:51:47.185Z,14.43
2018-10-16T05:54:16.940Z,15.07
2018-10-16T05:56:46.283Z,14.50
2018-10-16T05:59:15.706Z,20.30
2018-10-16T06:01:45.127Z,15.90
2018-10-16T06:04:14.467Z,16.80
2018-10-16T06:06:43.794Z,19.93
2018-10-16T06:09:13.420Z,15.93
2018-10-16T06:11:42.903Z,17.60
2018-10-16T06:14:12.225Z,17.73
2018-10-16T06:16:41.625Z,15.30
2018-10-16T06:19:10.940Z,14.97
2018-10-16T06:21:40.305Z,15.87
2018-10-16T06:24:09.661Z,15.87
2018-10-16T06:26:38.991Z,16.13
2018-10-16T06:29:08.363Z,16.50
2018-10-16T06:31:37.754Z,17.40
2018-10-16T06:34:07.170Z,16.67
2018-10-16T06:36:36.549Z,16.53
2018-10-16T06:39:09.200Z,16.27
2018-10-16T06:41:38.712Z,14.87
2018-10-16T06:44:08.482Z,17.00
2018-10-16T06:46:37.913Z,14.20
2018-10-16T06:49:07.160Z,16.17
2018-10-16T06:51:36.482Z,14.27
2018-10-16T06:54:06.281Z,14.30
2018-10-16T06:56:35.678Z,15.23
2018-10-16T06:59:05.337Z,13.70
2018-10-16T07:01:34.771Z,13.70
2018-10-16T07:04:04.153Z,16.40
2018-10-16T07:06:33.633Z,13.40
2018-10-16T07:09:02.965Z,13.00
2018-10-16T07:11:32.305Z,13.87
2018-10-16T07:14:02.562Z,13.70
2018-10-16T07:16:32.190Z,14.17
2018-10-16T07:19:01.610Z,13.13
2018-10-16T07:21:31.113Z,13.57
2018-10-16T07:24:00.504Z,11.50
2018-10-16T07:26:31.082Z,11.33
2018-10-16T07:29:00.431Z,11.60
2018-10-16T07:31:29.809Z,12.60
2018-10-16T07:33:59.247Z,12.63
2018-10-16T07:36:28.588Z,13.67
2018-10-16T07:38:58.093Z,12.70
2018-10-16T07:41:27.462Z,12.47
2018-10-16T07:43:56.967Z,11.53
2018-10-16T07:46:26.317Z,13.30
2018-10-16T07:48:55.712Z,12.50
2018-10-16T07:51:25.058Z,12.67
2018-10-16T07:53:54.388Z,13.07
2018-10-16T07:56:23.776Z,13.40
2018-10-16T07:58:53.379Z,12.63
2018-10-16T08:01:22.774Z,11.53
2018-10-16T08:03:52.122Z,12.20
2018-10-16T08:06:21.678Z,12.50
2018-10-16T08:08:51.076Z,12.40
2018-10-16T08:11:20.478Z,11.17
2018-10-16T08:13:49.871Z,11.63
2018-10-16T08:16:19.444Z,12.43
2018-10-16T08:18:48.855Z,13.30
2018-10-16T08:21:18.321Z,11.43
2018-10-16T08:23:47.659Z,13.40
2018-10-16T08:26:17.113Z,12.27
2018-10-16T08:28:46.716Z,11.10
2018-10-16T08:31:16.071Z,12.57
2018-10-16T08:33:45.578Z,10.90
2018-10-16T08:36:15.050Z,11.67
2018-10-16T08:38:55.080Z,12.13
2018-10-16T08:41:30.195Z,12.27
2018-10-16T08:44:11.606Z,11.93
2018-10-16T08:46:52.348Z,11.50
2018-10-16T08:49:32.902Z,12.07
2018-10-16T08:52:02.346Z,13.23
2018-10-16T08:54:31.764Z,12.47
2018-10-16T08:57:01.132Z,12.50
2018-10-16T08:59:30.528Z,12.60
2018-10-16T09:01:59.878Z,12.70
2018-10-16T09:04:29.184Z,11.50
2018-10-16T09:06:58.604Z,11.80
2018-10-16T09:09:28.572Z,12.10
2018-10-16T09:11:58.640Z,11.83
2018-10-16T09:14:29.091Z,12.60
2018-10-16T09:16:58.450Z,13.63
2018-10-16T09:19:27.924Z,15.90
2018-10-16T09:21:57.301Z,12.10
2018-10-16T09:24:26.799Z,17.70
2018-10-16T09:26:56.208Z,17.90
2018-10-16T09:29:25.586Z,16.40
2018-10-16T09:31:55.644Z,20.43
2018-10-16T09:34:25.027Z,16.13
2018-10-16T09:36:54.456Z,17.60
2018-10-16T09:39:25.039Z,18.70
2018-10-16T09:41:54.370Z,17.50
2018-10-16T09:44:23.801Z,16.47
2018-10-16T09:46:53.895Z,16.57
2018-10-16T09:49:23.332Z,18.60
2018-10-16T09:51:53.355Z,18.60
2018-10-16T09:54:22.861Z,15.60
2018-10-16T09:56:52.292Z,16.10
2018-10-16T09:59:21.633Z,12.30
2018-10-16T10:01:54.197Z,17.73
2018-10-16T10:04:24.893Z,20.20
2018-10-16T10:06:54.379Z,17.33
2018-10-16T10:09:24.868Z,15.90
2018-10-16T10:11:54.266Z,13.90
2018-10-16T10:14:23.616Z,13.17
2018-10-16T10:16:53.048Z,10.93
2018-10-16T10:19:22.450Z,10.43
2018-10-16T10:21:51.963Z,10.03
2018-10-16T10:24:21.433Z,11.43
2018-10-16T10:26:51.465Z,10.80
2018-10-16T10:29:20.896Z,11.80
2018-10-16T10:31:50.341Z,10.10
2018-10-16T10:34:22.061Z,10.10
2018-10-16T10:36:51.721Z,10.83
2018-10-16T10:39:21.606Z,11.07
2018-10-16T10:41:52.764Z,10.93
2018-10-16T10:44:22.081Z,11.00
2018-10-16T10:46:51.482Z,10.10
2018-10-16T10:49:20.812Z,10.57
2018-10-16T10:51:50.167Z,9.63
2018-10-16T10:54:20.408Z,10.27
2018-10-16T10:56:49.906Z,9.27
2018-10-16T10:59:19.222Z,8.90
2018-10-16T11:01:48.718Z,11.00
2018-10-16T11:04:18.767Z,10.13
2018-10-16T11:06:48.112Z,10.60
2018-10-16T11:09:17.458Z,10.60
2018-10-16T11:11:52.343Z,10.57
2018-10-16T11:14:21.881Z,8.50
2018-10-16T11:16:51.277Z,9.20
2018-10-16T11:19:21.436Z,10.03
2018-10-16T11:21:52.285Z,8.33
2018-10-16T11:24:21.778Z,8.10
2018-10-16T11:26:51.284Z,7.93
2018-10-16T11:29:20.647Z,8.60
2018-10-16T11:31:50.061Z,7.30
2018-10-16T11:34:20.580Z,7.97
2018-10-16T11:36:50.327Z,7.70
2018-10-16T11:39:19.626Z,7.33
2018-10-16T11:41:49.539Z,7.57
2018-10-16T11:44:18.866Z,7.90
2018-10-16T11:46:49.418Z,7.83
2018-10-16T11:49:18.877Z,9.10
2018-10-16T11:51:49.001Z,8.27
2018-10-16T11:54:18.473Z,8.43
2018-10-16T11:56:47.957Z,7.70
2018-10-16T11:59:17.499Z,7.07
2018-10-16T12:01:46.849Z,7.70
2018-10-16T12:04:16.636Z,7.90
2018-10-16T12:06:46.601Z,7.40
2018-10-16T12:09:15.956Z,7.70
2018-10-16T12:11:45.561Z,8.30
2018-10-16T12:14:14.959Z,8.07
2018-10-16T12:16:49.748Z,7.10
2018-10-16T12:19:24.443Z,7.43
2018-10-16T12:21:53.952Z,8.10
2018-10-16T12:24:23.292Z,6.33
2018-10-16T12:26:53.608Z,6.73
2018-10-16T12:29:22.975Z,6.77
2018-10-16T12:31:52.429Z,7.47
2018-10-16T12:34:21.810Z,6.20
2018-10-16T12:36:52.195Z,7.37
2018-10-16T12:39:22.327Z,7.20
2018-10-16T12:41:52.889Z,8.80
2018-10-16T12:44:23.163Z,9.20
2018-10-16T12:46:52.704Z,9.63
2018-10-16T12:49:22.188Z,9.70
2018-10-16T12:51:52.207Z,9.37
2018-10-16T12:54:22.360Z,9.80
2018-10-16T12:56:51.914Z,34.63
2018-10-16T12:59:21.988Z,9.87
2018-10-16T13:01:51.670Z,9.00
2018-10-16T13:04:22.017Z,10.10
2018-10-16T13:06:52.101Z,8.27
2018-10-16T13:09:22.076Z,8.20
2018-10-16T13:11:52.542Z,8.83
2018-10-16T13:14:21.899Z,8.33
2018-10-16T13:16:51.482Z,9.00
2018-10-16T13:19:20.868Z,11.50
2018-10-16T13:21:50.462Z,10.03
2018-10-16T13:24:20.616Z,8.40
2018-10-16T13:26:50.100Z,9.10
2018-10-16T13:29:19.636Z,8.17
2018-10-16T13:31:49.136Z,8.43
2018-10-16T13:34:18.499Z,8.53
2018-10-16T13:36:47.914Z,6.20
2018-10-16T13:39:20.370Z,6.10
2018-10-16T13:41:50.819Z,5.50
2018-10-16T13:44:20.247Z,4.87
2018-10-16T13:46:50.787Z,5.23
2018-10-16T13:49:20.316Z,5.80
2018-10-16T13:51:50.324Z,5.10
2018-10-16T13:54:19.907Z,5.23
2018-10-16T13:56:49.687Z,5.47
2018-10-16T13:59:19.139Z,4.70
2018-10-16T14:01:49.055Z,5.90
2018-10-16T14:04:19.431Z,4.53
2018-10-16T14:06:48.866Z,4.47
2018-10-16T14:09:18.249Z,6.17
2018-10-16T14:11:47.773Z,3.70
2018-10-16T14:14:17.189Z,3.70
2018-10-16T14:16:46.445Z,3.57
2018-10-16T14:19:15.801Z,3.83
2018-10-16T14:21:45.305Z,3.30
2018-10-16T14:24:14.650Z,3.60
2018-10-16T14:26:44.072Z,3.90
2018-10-16T14:29:13.706Z,4.03
2018-10-16T14:31:43.076Z,4.20
2018-10-16T14:34:12.477Z,4.70
2018-10-16T14:36:42.490Z,4.30
2018-10-16T14:39:13.656Z,4.00
2018-10-16T14:41:43.099Z,4.07
2018-10-16T14:44:12.961Z,4.37
2018-10-16T14:46:42.269Z,3.70
2018-10-16T14:49:11.589Z,3.70
2018-10-16T14:51:40.986Z,3.47
2018-10-16T14:54:10.394Z,3.90
2018-10-16T14:56:39.752Z,3.93
2018-10-16T14:59:09.074Z,3.70
2018-10-16T15:01:38.597Z,4.90
2018-10-16T15:04:08.758Z,3.93
2018-10-16T15:06:38.066Z,4.47
2018-10-16T15:09:09.185Z,3.93
2018-10-16T15:11:39.149Z,4.20
2018-10-16T15:14:12.875Z,4.23
2018-10-16T15:16:43.464Z,4.50
2018-10-16T15:19:13.202Z,4.90
2018-10-16T15:21:42.628Z,3.60
2018-10-16T15:24:12.106Z,4.03
2018-10-16T15:26:41.539Z,3.93
2018-10-16T15:29:10.891Z,3.97
2018-10-16T15:31:40.237Z,4.30
2018-10-16T15:34:09.880Z,4.17
2018-10-16T15:36:39.289Z,4.00
2018-10-16T15:39:12.571Z,3.90
2018-10-16T15:41:42.052Z,3.20
2018-10-16T15:44:11.510Z,3.80
2018-10-16T15:46:40.980Z,3.87
2018-10-16T15:49:16.377Z,4.27
2018-10-16T15:51:50.112Z,2.90
2018-10-16T15:54:28.881Z,4.20
2018-10-16T15:57:00.505Z,3.33
2018-10-16T15:59:30.792Z,4.10
2018-10-16T16:02:03.915Z,3.90
2018-10-16T16:04:33.720Z,3.87
2018-10-16T16:07:05.422Z,4.23
2018-10-16T16:09:35.791Z,4.30
2018-10-16T16:12:05.433Z,3.93
2018-10-16T16:14:35.007Z,4.13
2018-10-16T16:17:04.132Z,3.83
2018-10-16T16:19:33.563Z,4.80
2018-10-16T16:22:03.246Z,4.67
2018-10-16T16:24:32.716Z,3.90
2018-10-16T16:27:02.075Z,4.10
2018-10-16T16:29:32.399Z,4.27
2018-10-16T16:32:01.771Z,3.57
2018-10-16T16:34:31.176Z,4.00
2018-10-16T16:37:00.584Z,3.90
2018-10-16T16:39:30.056Z,3.83
2018-10-16T16:41:59.302Z,4.80
2018-10-16T16:44:28.610Z,4.37
2018-10-16T16:46:58.023Z,4.37
2018-10-16T16:49:27.343Z,4.80
2018-10-16T16:51:56.695Z,4.67
2018-10-16T16:54:26.125Z,5.07
2018-10-16T16:56:55.463Z,4.70
2018-10-16T16:59:24.858Z,6.27
2018-10-16T17:01:54.200Z,6.73
2018-10-16T17:04:23.742Z,6.30
2018-10-16T17:06:53.073Z,5.70
2018-10-16T17:09:22.460Z,6.70
2018-10-16T17:11:51.823Z,4.40
2018-10-16T17:14:21.105Z,5.83
2018-10-16T17:16:50.491Z,5.60
2018-10-16T17:19:20.075Z,5.60
2018-10-16T17:21:49.419Z,5.73
2018-10-16T17:24:18.757Z,5.20
2018-10-16T17:26:48.592Z,6.03
2018-10-16T17:29:17.744Z,5.10
2018-10-16T17:31:47.152Z,7.10
2018-10-16T17:34:16.979Z,7.47
2018-10-16T17:36:46.294Z,8.80
2018-10-16T17:39:15.735Z,8.00
2018-10-16T17:41:45.726Z,7.93
2018-10-16T17:44:15.108Z,8.87
2018-10-16T17:46:44.448Z,8.57
2018-10-16T17:49:13.869Z,7.67
2018-10-16T17:51:43.256Z,7.30
2018-10-16T17:54:12.574Z,8.43
2018-10-16T17:56:41.935Z,10.17
2018-10-16T17:59:11.257Z,7.37
2018-10-16T18:01:40.591Z,8.23
2018-10-16T18:04:10.145Z,6.67
2018-10-16T18:06:39.466Z,6.23
2018-10-16T18:09:08.949Z,7.53
2018-10-16T18:11:38.405Z,7.93
2018-10-16T18:14:08.437Z,7.90
2018-10-16T18:16:37.843Z,11.03
2018-10-16T18:19:07.715Z,10.20
2018-10-16T18:21:37.059Z,10.53
2018-10-16T18:24:07.388Z,10.97
2018-10-16T18:26:36.864Z,10.33
2018-10-16T18:29:06.239Z,9.17
2018-10-16T18:31:35.612Z,9.30
2018-10-16T18:34:05.063Z,10.23
2018-10-16T18:36:34.389Z,13.43
2018-10-16T18:39:03.994Z,11.60
2018-10-16T18:41:33.416Z,10.90
2018-10-16T18:44:02.792Z,10.10
2018-10-16T18:46:32.125Z,10.10
2018-10-16T18:49:01.570Z,9.63
2018-10-16T18:51:30.882Z,9.27
2018-10-16T18:54:00.286Z,9.97
2018-10-16T18:56:30.012Z,9.10
2018-10-16T18:58:59.611Z,8.50
2018-10-16T19:01:29.036Z,9.30
2018-10-16T19:03:58.402Z,9.30
2018-10-16T19:06:27.741Z,8.70
2018-10-16T19:08:57.143Z,9.93
2018-10-16T19:11:26.536Z,9.30
2018-10-16T19:13:55.938Z,8.67
2018-10-16T19:16:25.181Z,7.60
2018-10-16T19:18:54.658Z,8.10
2018-10-16T19:21:24.045Z,8.00
2018-10-16T19:23:53.458Z,9.40
2018-10-16T19:26:23.135Z,9.10
2018-10-16T19:28:52.487Z,8.80
2018-10-16T19:31:21.869Z,9.80
2018-10-16T19:33:51.320Z,8.50
2018-10-16T19:36:20.715Z,8.53
2018-10-16T19:38:50.024Z,7.67
2018-10-16T19:41:19.481Z,8.77
2018-10-16T19:43:48.906Z,8.30
2018-10-16T19:46:18.353Z,9.53
2018-10-16T19:48:47.663Z,7.50
2018-10-16T19:51:17.045Z,8.87
2018-10-16T19:53:46.671Z,7.63
2018-10-16T19:56:15.980Z,8.87
2018-10-16T19:58:45.324Z,10.00
2018-10-16T20:01:14.638Z,9.00
2018-10-16T20:03:44.060Z,9.60
2018-10-16T20:06:13.405Z,9.57
2018-10-16T20:08:43.125Z,10.33
2018-10-16T20:11:12.984Z,9.57
2018-10-16T20:13:42.303Z,9.57
2018-10-16T20:16:11.635Z,9.50
2018-10-16T20:18:41.091Z,9.10
2018-10-16T20:21:10.405Z,9.33
2018-10-16T20:23:39.795Z,9.73
2018-10-16T20:26:09.146Z,9.20
2018-10-16T20:28:38.610Z,9.13
2018-10-16T20:31:08.019Z,9.40
2018-10-16T20:33:37.298Z,9.83
2018-10-16T20:36:06.625Z,8.73
2018-10-16T20:38:35.921Z,8.80
2018-10-16T20:41:05.282Z,9.40
2018-10-16T20:43:35.120Z,9.43
2018-10-16T20:46:05.070Z,9.07
2018-10-16T20:48:34.548Z,8.57
2018-10-16T20:51:04.006Z,8.27
2018-10-16T20:53:33.401Z,9.13
2018-10-16T20:56:02.821Z,9.87
2018-10-16T20:58:32.210Z,9.80
2018-10-16T21:01:01.923Z,8.93
2018-10-16T21:03:31.155Z,9.47
2018-10-16T21:06:01.138Z,9.70
2018-10-16T21:08:30.358Z,9.40
2018-10-16T21:10:59.713Z,9.50
2018-10-16T21:13:29.027Z,9.00
2018-10-16T21:15:59.210Z,9.40
2018-10-16T21:18:28.513Z,10.27
2018-10-16T21:20:57.794Z,9.83
2018-10-16T21:23:27.112Z,9.53
2018-10-16T21:25:56.429Z,8.90
2018-10-16T21:28:25.819Z,10.17
2018-10-16T21:30:55.137Z,9.60
2018-10-16T21:33:24.471Z,8.57
2018-10-16T21:35:54.151Z,10.73
2018-10-16T21:38:23.527Z,10.10
2018-10-16T21:40:52.989Z,10.00
2018-10-16T21:43:22.295Z,9.50
2018-10-16T21:45:51.603Z,9.90
2018-10-16T21:48:21.656Z,10.23
2018-10-16T21:50:50.999Z,10.13
2018-10-16T21:53:20.310Z,9.70
2018-10-16T21:55:49.654Z,8.83
2018-10-16T21:58:18.958Z,9.77
2018-10-16T22:00:53.813Z,10.43
2018-10-16T22:03:23.109Z,9.83
2018-10-16T22:05:52.537Z,9.60
2018-10-16T22:08:21.822Z,9.60
2018-10-16T22:10:51.205Z,9.20
2018-10-16T22:13:20.562Z,9.70
2018-10-16T22:15:49.885Z,9.20
2018-10-16T22:18:19.231Z,10.83
2018-10-16T22:20:48.545Z,9.73
2018-10-16T22:23:17.909Z,10.00
2018-10-16T22:25:54.369Z,9.47
2018-10-16T22:28:23.722Z,9.90
2018-10-16T22:30:53.109Z,10.20
2018-10-16T22:33:22.490Z,9.87
2018-10-16T22:35:51.896Z,9.03
2018-10-16T22:38:21.338Z,9.97
2018-10-16T22:40:50.758Z,9.13
2018-10-16T22:43:20.013Z,10.27
2018-10-16T22:45:49.346Z,10.70
2018-10-16T22:48:18.658Z,10.53
2018-10-16T22:50:47.997Z,10.50
2018-10-16T22:53:17.415Z,10.93
2018-10-16T22:55:46.681Z,9.90
2018-10-16T22:58:15.994Z,10.87
2018-10-16T23:00:46.326Z,8.87
2018-10-16T23:03:15.653Z,10.70
2018-10-16T23:05:44.979Z,11.60
2018-10-16T23:08:14.283Z,9.10
2018-10-16T23:10:44.201Z,8.83
2018-10-16T23:13:13.619Z,9.67
2018-10-16T23:15:42.839Z,10.30
2018-10-16T23:18:12.140Z,11.03
2018-10-16T23:20:41.535Z,10.10
2018-10-16T23:23:10.860Z,9.70
2018-10-16T23:25:40.166Z,10.63
2018-10-16T23:28:09.555Z,11.00
2018-10-16T23:30:38.860Z,9.80
2018-10-16T23:33:08.179Z,10.90
2018-10-16T23:35:37.479Z,10.77
2018-10-16T23:38:06.843Z,10.57
2018-10-16T23:40:36.154Z,10.40
2018-10-16T23:43:05.891Z,10.43
2018-10-16T23:45:35.209Z,10.50
2018-10-16T23:48:04.515Z,11.37
2018-10-16T23:50:33.850Z,11.20
2018-10-16T23:53:03.250Z,11.17
2018-10-16T23:55:32.621Z,10.63
2018-10-16T23:58:01.932Z,11.10
